sensor_id;sensor_type;location;lat;lon;timestamp;P1;durP1;ratioP1;P2;durP2;ratioP2
9968;SDS011;5025;48.890;9.278;2023-09-19T00:02:11;1.20;;;1.20;;
9968;SDS011;5025;48.890;9.278;2023-09-19T00:04:37;1.27;;;1.20;;
9968;SDS011;5025;48.890;9.278;2023-09-19T00:07:04;1.20;;;1.20;;
9968;SDS011;5025;48.890;9.278;2023-09-19T00:09:30;2.00;;;1.30;;
9968;SDS011;5025;48.890;9.278;2023-09-19T00:11:55;1.33;;;1.23;;
9968;SDS011;5025;48.890;9.278;2023-09-19T00:14:20;1.70;;;1.60;;
9968;SDS011;5025;48.890;9.278;2023-09-19T00:16:49;1.23;;;1.23;;
9968;SDS011;5025;48.890;9.278;2023-09-19T00:19:14;1.43;;;1.30;;
9968;SDS011;5025;48.890;9.278;2023-09-19T00:21:41;1.40;;;1.30;;
9968;SDS011;5025;48.890;9.278;2023-09-19T00:24:06;1.30;;;1.20;;
9968;SDS011;5025;48.890;9.278;2023-09-19T00:26:34;1.37;;;1.30;;
9968;SDS011;5025;48.890;9.278;2023-09-19T00:28:59;1.20;;;1.20;;
9968;SDS011;5025;48.890;9.278;2023-09-19T00:31:29;1.10;;;1.10;;
9968;SDS011;5025;48.890;9.278;2023-09-19T00:33:55;1.07;;;1.00;;
9968;SDS011;5025;48.890;9.278;2023-09-19T00:36:24;1.03;;;1.03;;
9968;SDS011;5025;48.890;9.278;2023-09-19T00:38:50;1.20;;;1.10;;
9968;SDS011;5025;48.890;9.278;2023-09-19T00:41:15;1.10;;;1.10;;
9968;SDS011;5025;48.890;9.278;2023-09-19T00:43:40;1.30;;;1.20;;
9968;SDS011;5025;48.890;9.278;2023-09-19T00:46:05;1.53;;;1.00;;
9968;SDS011;5025;48.890;9.278;2023-09-19T00:48:31;1.23;;;1.23;;
9968;SDS011;5025;48.890;9.278;2023-09-19T00:51:05;1.10;;;1.10;;
9968;SDS011;5025;48.890;9.278;2023-09-19T00:53:30;1.30;;;1.00;;
9968;SDS011;5025;48.890;9.278;2023-09-19T00:55:56;1.00;;;1.00;;
9968;SDS011;5025;48.890;9.278;2023-09-19T00:58:21;1.20;;;1.00;;
9968;SDS011;5025;48.890;9.278;2023-09-19T01:00:48;0.90;;;0.90;;
9968;SDS011;5025;48.890;9.278;2023-09-19T01:03:14;1.20;;;1.10;;
9968;SDS011;5025;48.890;9.278;2023-09-19T01:05:39;1.53;;;1.20;;
9968;SDS011;5025;48.890;9.278;2023-09-19T01:08:05;1.40;;;1.30;;
9968;SDS011;5025;48.890;9.278;2023-09-19T01:10:31;2.60;;;1.20;;
9968;SDS011;5025;48.890;9.278;2023-09-19T01:18:47;1.00;;;1.00;;
9968;SDS011;5025;48.890;9.278;2023-09-19T01:29:44;1.87;;;1.20;;
9968;SDS011;5025;48.890;9.278;2023-09-19T01:32:13;1.00;;;1.00;;
9968;SDS011;5025;48.890;9.278;2023-09-19T01:37:10;1.70;;;1.60;;
9968;SDS011;5025;48.890;9.278;2023-09-19T01:39:35;1.33;;;1.23;;
9968;SDS011;5025;48.890;9.278;2023-09-19T01:44:44;1.80;;;1.30;;
9968;SDS011;5025;48.890;9.278;2023-09-19T01:47:23;1.03;;;1.03;;
9968;SDS011;5025;48.890;9.278;2023-09-19T01:50:15;1.57;;;1.20;;
9968;SDS011;5025;48.890;9.278;2023-09-19T01:52:54;1.20;;;1.10;;
9968;SDS011;5025;48.890;9.278;2023-09-19T01:55:26;1.03;;;1.03;;
9968;SDS011;5025;48.890;9.278;2023-09-19T01:57:58;1.30;;;1.20;;
9968;SDS011;5025;48.890;9.278;2023-09-19T02:00:29;1.10;;;1.10;;
9968;SDS011;5025;48.890;9.278;2023-09-19T02:03:00;1.13;;;1.03;;
9968;SDS011;5025;48.890;9.278;2023-09-19T02:05:27;2.00;;;1.47;;
9968;SDS011;5025;48.890;9.278;2023-09-19T02:07:52;1.50;;;1.40;;
9968;SDS011;5025;48.890;9.278;2023-09-19T02:10:18;1.60;;;1.50;;
9968;SDS011;5025;48.890;9.278;2023-09-19T02:12:44;1.50;;;1.40;;
9968;SDS011;5025;48.890;9.278;2023-09-19T02:15:10;1.50;;;1.40;;
9968;SDS011;5025;48.890;9.278;2023-09-19T02:17:35;1.73;;;1.47;;
9968;SDS011;5025;48.890;9.278;2023-09-19T02:20:00;1.27;;;1.10;;
9968;SDS011;5025;48.890;9.278;2023-09-19T02:22:26;1.33;;;1.33;;
9968;SDS011;5025;48.890;9.278;2023-09-19T02:24:52;1.30;;;1.20;;
9968;SDS011;5025;48.890;9.278;2023-09-19T02:27:18;1.40;;;1.30;;
9968;SDS011;5025;48.890;9.278;2023-09-19T02:29:44;1.30;;;1.20;;
9968;SDS011;5025;48.890;9.278;2023-09-19T02:32:10;1.40;;;1.30;;
9968;SDS011;5025;48.890;9.278;2023-09-19T02:34:35;1.47;;;1.37;;
9968;SDS011;5025;48.890;9.278;2023-09-19T02:37:02;1.47;;;1.37;;
9968;SDS011;5025;48.890;9.278;2023-09-19T02:39:30;1.83;;;1.50;;
9968;SDS011;5025;48.890;9.278;2023-09-19T02:41:55;1.30;;;1.20;;
9968;SDS011;5025;48.890;9.278;2023-09-19T02:44:20;1.63;;;1.10;;
9968;SDS011;5025;48.890;9.278;2023-09-19T02:46:46;1.00;;;1.00;;
9968;SDS011;5025;48.890;9.278;2023-09-19T02:49:11;1.17;;;1.13;;
9968;SDS011;5025;48.890;9.278;2023-09-19T02:51:38;1.70;;;1.60;;
9968;SDS011;5025;48.890;9.278;2023-09-19T02:54:03;1.67;;;1.40;;
9968;SDS011;5025;48.890;9.278;2023-09-19T02:56:28;1.10;;;1.10;;
9968;SDS011;5025;48.890;9.278;2023-09-19T02:58:55;1.50;;;1.40;;
9968;SDS011;5025;48.890;9.278;2023-09-19T03:01:21;1.60;;;1.50;;
9968;SDS011;5025;48.890;9.278;2023-09-19T03:03:47;1.97;;;1.40;;
9968;SDS011;5025;48.890;9.278;2023-09-19T03:06:12;1.43;;;1.27;;
9968;SDS011;5025;48.890;9.278;2023-09-19T03:08:45;1.20;;;1.20;;
9968;SDS011;5025;48.890;9.278;2023-09-19T03:11:11;1.23;;;1.23;;
9968;SDS011;5025;48.890;9.278;2023-09-19T03:13:39;1.67;;;1.40;;
9968;SDS011;5025;48.890;9.278;2023-09-19T03:16:06;1.27;;;1.17;;
9968;SDS011;5025;48.890;9.278;2023-09-19T03:18:35;2.03;;;1.40;;
9968;SDS011;5025;48.890;9.278;2023-09-19T03:21:00;2.03;;;1.30;;
9968;SDS011;5025;48.890;9.278;2023-09-19T03:23:26;1.13;;;1.03;;
9968;SDS011;5025;48.890;9.278;2023-09-19T03:25:53;1.20;;;1.20;;
9968;SDS011;5025;48.890;9.278;2023-09-19T03:28:19;1.37;;;1.00;;
9968;SDS011;5025;48.890;9.278;2023-09-19T03:30:45;1.30;;;1.20;;
9968;SDS011;5025;48.890;9.278;2023-09-19T03:33:11;1.30;;;1.20;;
9968;SDS011;5025;48.890;9.278;2023-09-19T03:35:37;1.60;;;1.37;;
9968;SDS011;5025;48.890;9.278;2023-09-19T03:38:04;1.10;;;1.10;;
9968;SDS011;5025;48.890;9.278;2023-09-19T03:40:30;1.10;;;1.00;;
9968;SDS011;5025;48.890;9.278;2023-09-19T03:42:55;1.50;;;1.30;;
9968;SDS011;5025;48.890;9.278;2023-09-19T03:45:21;1.80;;;1.10;;
9968;SDS011;5025;48.890;9.278;2023-09-19T03:47:46;1.10;;;1.10;;
9968;SDS011;5025;48.890;9.278;2023-09-19T03:50:14;1.47;;;1.37;;
9968;SDS011;5025;48.890;9.278;2023-09-19T03:52:42;1.27;;;1.17;;
9968;SDS011;5025;48.890;9.278;2023-09-19T03:55:10;1.70;;;1.27;;
9968;SDS011;5025;48.890;9.278;2023-09-19T03:57:35;1.40;;;1.30;;
9968;SDS011;5025;48.890;9.278;2023-09-19T04:00:01;1.37;;;1.30;;
9968;SDS011;5025;48.890;9.278;2023-09-19T04:02:27;1.17;;;1.07;;
9968;SDS011;5025;48.890;9.278;2023-09-19T04:04:57;1.23;;;1.20;;
9968;SDS011;5025;48.890;9.278;2023-09-19T04:07:23;1.10;;;1.00;;
9968;SDS011;5025;48.890;9.278;2023-09-19T04:09:50;1.53;;;1.37;;
9968;SDS011;5025;48.890;9.278;2023-09-19T04:12:18;1.43;;;1.33;;
9968;SDS011;5025;48.890;9.278;2023-09-19T04:14:43;1.30;;;1.20;;
9968;SDS011;5025;48.890;9.278;2023-09-19T04:17:09;1.50;;;1.40;;
9968;SDS011;5025;48.890;9.278;2023-09-19T04:19:35;1.30;;;1.20;;
9968;SDS011;5025;48.890;9.278;2023-09-19T04:22:00;1.27;;;1.20;;
9968;SDS011;5025;48.890;9.278;2023-09-19T04:24:26;1.60;;;1.50;;
9968;SDS011;5025;48.890;9.278;2023-09-19T04:26:51;1.43;;;1.40;;
9968;SDS011;5025;48.890;9.278;2023-09-19T04:29:17;1.40;;;1.30;;
9968;SDS011;5025;48.890;9.278;2023-09-19T04:31:44;1.50;;;1.40;;
9968;SDS011;5025;48.890;9.278;2023-09-19T04:34:10;1.17;;;1.10;;
9968;SDS011;5025;48.890;9.278;2023-09-19T04:36:35;1.20;;;1.20;;
9968;SDS011;5025;48.890;9.278;2023-09-19T04:39:02;1.43;;;1.33;;
9968;SDS011;5025;48.890;9.278;2023-09-19T04:41:30;1.30;;;1.20;;
9968;SDS011;5025;48.890;9.278;2023-09-19T04:43:55;1.10;;;1.10;;
9968;SDS011;5025;48.890;9.278;2023-09-19T04:46:20;1.27;;;1.17;;
9968;SDS011;5025;48.890;9.278;2023-09-19T04:48:46;1.10;;;1.10;;
9968;SDS011;5025;48.890;9.278;2023-09-19T04:51:11;1.10;;;1.10;;
9968;SDS011;5025;48.890;9.278;2023-09-19T04:53:36;1.10;;;1.00;;
9968;SDS011;5025;48.890;9.278;2023-09-19T04:56:02;1.10;;;1.10;;
9968;SDS011;5025;48.890;9.278;2023-09-19T04:58:28;1.10;;;1.10;;
9968;SDS011;5025;48.890;9.278;2023-09-19T05:00:53;1.20;;;1.10;;
9968;SDS011;5025;48.890;9.278;2023-09-19T05:03:19;1.07;;;1.07;;
9968;SDS011;5025;48.890;9.278;2023-09-19T05:05:45;1.30;;;1.30;;
9968;SDS011;5025;48.890;9.278;2023-09-19T05:08:10;2.00;;;1.20;;
9968;SDS011;5025;48.890;9.278;2023-09-19T05:10:35;1.10;;;1.10;;
9968;SDS011;5025;48.890;9.278;2023-09-19T05:13:03;1.57;;;1.47;;
9968;SDS011;5025;48.890;9.278;2023-09-19T05:15:29;3.00;;;2.30;;
9968;SDS011;5025;48.890;9.278;2023-09-19T05:17:55;2.80;;;2.20;;
9968;SDS011;5025;48.890;9.278;2023-09-19T05:20:20;3.10;;;2.30;;
9968;SDS011;5025;48.890;9.278;2023-09-19T05:23:00;1.67;;;1.57;;
9968;SDS011;5025;48.890;9.278;2023-09-19T05:25:27;1.90;;;1.80;;
9968;SDS011;5025;48.890;9.278;2023-09-19T05:27:55;1.60;;;1.50;;
9968;SDS011;5025;48.890;9.278;2023-09-19T05:30:22;1.60;;;1.50;;
9968;SDS011;5025;48.890;9.278;2023-09-19T05:32:48;1.43;;;1.43;;
9968;SDS011;5025;48.890;9.278;2023-09-19T05:35:13;2.43;;;1.43;;
9968;SDS011;5025;48.890;9.278;2023-09-19T05:37:38;1.40;;;1.30;;
9968;SDS011;5025;48.890;9.278;2023-09-19T05:40:04;1.43;;;1.33;;
9968;SDS011;5025;48.890;9.278;2023-09-19T05:42:37;1.80;;;1.57;;
9968;SDS011;5025;48.890;9.278;2023-09-19T05:45:04;1.70;;;1.60;;
9968;SDS011;5025;48.890;9.278;2023-09-19T05:47:31;2.03;;;1.93;;
9968;SDS011;5025;48.890;9.278;2023-09-19T05:49:56;1.90;;;1.80;;
9968;SDS011;5025;48.890;9.278;2023-09-19T05:52:22;1.57;;;1.47;;
9968;SDS011;5025;48.890;9.278;2023-09-19T05:54:47;2.17;;;1.70;;
9968;SDS011;5025;48.890;9.278;2023-09-19T05:57:12;2.00;;;1.90;;
9968;SDS011;5025;48.890;9.278;2023-09-19T05:59:38;2.10;;;1.90;;
9968;SDS011;5025;48.890;9.278;2023-09-19T06:02:04;2.60;;;2.37;;
9968;SDS011;5025;48.890;9.278;2023-09-19T06:04:31;3.50;;;3.00;;
9968;SDS011;5025;48.890;9.278;2023-09-19T06:06:56;3.03;;;2.77;;
9968;SDS011;5025;48.890;9.278;2023-09-19T06:09:22;2.80;;;2.00;;
9968;SDS011;5025;48.890;9.278;2023-09-19T06:11:48;1.83;;;1.67;;
9968;SDS011;5025;48.890;9.278;2023-09-19T06:14:13;1.70;;;1.60;;
9968;SDS011;5025;48.890;9.278;2023-09-19T06:16:39;1.70;;;1.60;;
9968;SDS011;5025;48.890;9.278;2023-09-19T06:19:06;2.20;;;1.70;;
9968;SDS011;5025;48.890;9.278;2023-09-19T06:21:35;2.33;;;1.90;;
9968;SDS011;5025;48.890;9.278;2023-09-19T06:24:00;2.60;;;2.07;;
9968;SDS011;5025;48.890;9.278;2023-09-19T06:26:26;2.13;;;1.97;;
9968;SDS011;5025;48.890;9.278;2023-09-19T06:28:52;2.57;;;2.10;;
9968;SDS011;5025;48.890;9.278;2023-09-19T06:31:17;1.90;;;1.70;;
9968;SDS011;5025;48.890;9.278;2023-09-19T06:33:43;1.90;;;1.80;;
9968;SDS011;5025;48.890;9.278;2023-09-19T06:36:08;3.20;;;2.27;;
9968;SDS011;5025;48.890;9.278;2023-09-19T06:38:33;3.60;;;2.77;;
9968;SDS011;5025;48.890;9.278;2023-09-19T06:40:59;3.10;;;2.80;;
9968;SDS011;5025;48.890;9.278;2023-09-19T06:43:26;3.10;;;2.77;;
9968;SDS011;5025;48.890;9.278;2023-09-19T06:45:53;3.07;;;2.77;;
9968;SDS011;5025;48.890;9.278;2023-09-19T06:48:19;3.57;;;2.83;;
9968;SDS011;5025;48.890;9.278;2023-09-19T06:50:46;2.70;;;2.50;;
9968;SDS011;5025;48.890;9.278;2023-09-19T06:53:13;2.30;;;2.10;;
9968;SDS011;5025;48.890;9.278;2023-09-19T06:55:38;3.53;;;2.40;;
9968;SDS011;5025;48.890;9.278;2023-09-19T06:58:04;2.53;;;1.97;;
9968;SDS011;5025;48.890;9.278;2023-09-19T07:00:31;2.30;;;2.00;;
9968;SDS011;5025;48.890;9.278;2023-09-19T07:03:02;2.50;;;2.00;;
9968;SDS011;5025;48.890;9.278;2023-09-19T07:05:33;2.30;;;1.90;;
9968;SDS011;5025;48.890;9.278;2023-09-19T07:08:01;2.10;;;1.90;;
9968;SDS011;5025;48.890;9.278;2023-09-19T07:10:27;2.63;;;2.20;;
9968;SDS011;5025;48.890;9.278;2023-09-19T07:12:57;3.13;;;2.03;;
9968;SDS011;5025;48.890;9.278;2023-09-19T07:15:23;2.93;;;1.80;;
9968;SDS011;5025;48.890;9.278;2023-09-19T07:17:50;2.03;;;1.93;;
9968;SDS011;5025;48.890;9.278;2023-09-19T07:20:19;3.13;;;2.10;;
9968;SDS011;5025;48.890;9.278;2023-09-19T07:22:45;2.83;;;2.10;;
9968;SDS011;5025;48.890;9.278;2023-09-19T07:25:11;2.13;;;1.80;;
9968;SDS011;5025;48.890;9.278;2023-09-19T07:27:38;2.80;;;1.83;;
9968;SDS011;5025;48.890;9.278;2023-09-19T07:30:04;2.70;;;2.20;;
9968;SDS011;5025;48.890;9.278;2023-09-19T07:32:30;2.83;;;1.97;;
9968;SDS011;5025;48.890;9.278;2023-09-19T07:34:55;3.97;;;1.80;;
9968;SDS011;5025;48.890;9.278;2023-09-19T07:37:21;2.10;;;1.90;;
9968;SDS011;5025;48.890;9.278;2023-09-19T07:39:46;3.80;;;1.83;;
9968;SDS011;5025;48.890;9.278;2023-09-19T07:42:12;2.17;;;1.90;;
9968;SDS011;5025;48.890;9.278;2023-09-19T07:44:42;2.40;;;1.70;;
9968;SDS011;5025;48.890;9.278;2023-09-19T07:47:08;2.07;;;1.70;;
9968;SDS011;5025;48.890;9.278;2023-09-19T07:49:34;2.87;;;2.10;;
9968;SDS011;5025;48.890;9.278;2023-09-19T07:51:59;2.30;;;2.10;;
9968;SDS011;5025;48.890;9.278;2023-09-19T07:54:25;2.53;;;1.80;;
9968;SDS011;5025;48.890;9.278;2023-09-19T07:56:51;2.77;;;1.80;;
9968;SDS011;5025;48.890;9.278;2023-09-19T07:59:16;2.33;;;2.00;;
9968;SDS011;5025;48.890;9.278;2023-09-19T08:01:42;2.67;;;1.80;;
9968;SDS011;5025;48.890;9.278;2023-09-19T08:04:09;2.10;;;2.00;;
9968;SDS011;5025;48.890;9.278;2023-09-19T08:06:34;2.73;;;2.00;;
9968;SDS011;5025;48.890;9.278;2023-09-19T08:08:59;2.00;;;1.70;;
9968;SDS011;5025;48.890;9.278;2023-09-19T08:11:25;2.30;;;2.17;;
9968;SDS011;5025;48.890;9.278;2023-09-19T08:13:51;2.33;;;2.10;;
9968;SDS011;5025;48.890;9.278;2023-09-19T08:16:17;3.23;;;1.77;;
9968;SDS011;5025;48.890;9.278;2023-09-19T08:18:47;3.77;;;1.80;;
9968;SDS011;5025;48.890;9.278;2023-09-19T08:21:13;1.87;;;1.77;;
9968;SDS011;5025;48.890;9.278;2023-09-19T08:23:43;2.00;;;1.90;;
9968;SDS011;5025;48.890;9.278;2023-09-19T08:26:08;3.37;;;1.90;;
9968;SDS011;5025;48.890;9.278;2023-09-19T08:28:34;1.97;;;1.60;;
9968;SDS011;5025;48.890;9.278;2023-09-19T08:31:03;1.63;;;1.47;;
9968;SDS011;5025;48.890;9.278;2023-09-19T08:33:31;2.20;;;1.73;;
9968;SDS011;5025;48.890;9.278;2023-09-19T08:36:00;2.47;;;1.50;;
9968;SDS011;5025;48.890;9.278;2023-09-19T08:38:26;1.60;;;1.50;;
9968;SDS011;5025;48.890;9.278;2023-09-19T08:40:56;2.73;;;1.60;;
9968;SDS011;5025;48.890;9.278;2023-09-19T08:43:24;1.87;;;1.60;;
9968;SDS011;5025;48.890;9.278;2023-09-19T08:45:49;1.97;;;1.40;;
9968;SDS011;5025;48.890;9.278;2023-09-19T08:51:02;2.47;;;1.50;;
9968;SDS011;5025;48.890;9.278;2023-09-19T08:53:47;2.93;;;1.60;;
9968;SDS011;5025;48.890;9.278;2023-09-19T08:56:30;1.43;;;1.30;;
9968;SDS011;5025;48.890;9.278;2023-09-19T08:58:59;1.60;;;1.50;;
9968;SDS011;5025;48.890;9.278;2023-09-19T09:01:27;1.57;;;1.47;;
9968;SDS011;5025;48.890;9.278;2023-09-19T09:03:54;1.43;;;1.37;;
9968;SDS011;5025;48.890;9.278;2023-09-19T09:06:20;1.40;;;1.30;;
9968;SDS011;5025;48.890;9.278;2023-09-19T09:08:47;1.67;;;1.27;;
9968;SDS011;5025;48.890;9.278;2023-09-19T09:11:12;1.77;;;1.67;;
9968;SDS011;5025;48.890;9.278;2023-09-19T09:13:39;2.30;;;1.60;;
9968;SDS011;5025;48.890;9.278;2023-09-19T09:16:06;1.43;;;1.33;;
9968;SDS011;5025;48.890;9.278;2023-09-19T09:18:32;2.00;;;1.47;;
9968;SDS011;5025;48.890;9.278;2023-09-19T09:20:58;2.07;;;1.67;;
9968;SDS011;5025;48.890;9.278;2023-09-19T09:23:23;1.43;;;1.30;;
9968;SDS011;5025;48.890;9.278;2023-09-19T09:25:51;4.20;;;1.50;;
9968;SDS011;5025;48.890;9.278;2023-09-19T09:28:20;1.60;;;1.50;;
9968;SDS011;5025;48.890;9.278;2023-09-19T09:30:46;1.57;;;1.40;;
9968;SDS011;5025;48.890;9.278;2023-09-19T09:33:13;1.73;;;1.50;;
9968;SDS011;5025;48.890;9.278;2023-09-19T09:35:50;1.83;;;1.40;;
9968;SDS011;5025;48.890;9.278;2023-09-19T09:38:22;1.30;;;1.30;;
9968;SDS011;5025;48.890;9.278;2023-09-19T09:40:53;2.40;;;1.70;;
9968;SDS011;5025;48.890;9.278;2023-09-19T09:43:26;1.57;;;1.47;;
9968;SDS011;5025;48.890;9.278;2023-09-19T09:46:13;3.90;;;1.50;;
9968;SDS011;5025;48.890;9.278;2023-09-19T09:48:46;2.20;;;1.40;;
9968;SDS011;5025;48.890;9.278;2023-09-19T09:51:50;2.30;;;1.30;;
9968;SDS011;5025;48.890;9.278;2023-09-19T09:54:30;1.77;;;1.50;;
9968;SDS011;5025;48.890;9.278;2023-09-19T09:57:01;2.57;;;1.60;;
9968;SDS011;5025;48.890;9.278;2023-09-19T09:59:49;1.53;;;1.47;;
9968;SDS011;5025;48.890;9.278;2023-09-19T10:02:18;2.77;;;1.30;;
9968;SDS011;5025;48.890;9.278;2023-09-19T10:04:56;1.40;;;1.30;;
9968;SDS011;5025;48.890;9.278;2023-09-19T10:07:40;1.40;;;1.30;;
9968;SDS011;5025;48.890;9.278;2023-09-19T10:10:13;1.33;;;1.17;;
9968;SDS011;5025;48.890;9.278;2023-09-19T10:12:38;1.80;;;1.50;;
9968;SDS011;5025;48.890;9.278;2023-09-19T10:15:13;1.23;;;1.23;;
9968;SDS011;5025;48.890;9.278;2023-09-19T10:17:45;1.60;;;1.17;;
9968;SDS011;5025;48.890;9.278;2023-09-19T10:20:17;1.90;;;1.33;;
9968;SDS011;5025;48.890;9.278;2023-09-19T10:22:59;1.33;;;1.30;;
9968;SDS011;5025;48.890;9.278;2023-09-19T10:25:25;1.30;;;1.20;;
9968;SDS011;5025;48.890;9.278;2023-09-19T10:27:54;2.93;;;1.40;;
9968;SDS011;5025;48.890;9.278;2023-09-19T10:30:22;1.37;;;1.27;;
9968;SDS011;5025;48.890;9.278;2023-09-19T10:32:50;1.77;;;1.40;;
9968;SDS011;5025;48.890;9.278;2023-09-19T10:35:23;1.60;;;1.23;;
9968;SDS011;5025;48.890;9.278;2023-09-19T10:37:49;1.57;;;1.30;;
9968;SDS011;5025;48.890;9.278;2023-09-19T10:40:16;1.80;;;1.50;;
9968;SDS011;5025;48.890;9.278;2023-09-19T10:42:43;1.83;;;1.40;;
9968;SDS011;5025;48.890;9.278;2023-09-19T10:45:11;1.30;;;1.20;;
9968;SDS011;5025;48.890;9.278;2023-09-19T10:47:37;1.27;;;1.17;;
9968;SDS011;5025;48.890;9.278;2023-09-19T10:50:03;2.23;;;1.27;;
9968;SDS011;5025;48.890;9.278;2023-09-19T10:52:30;3.03;;;1.40;;
9968;SDS011;5025;48.890;9.278;2023-09-19T10:54:59;1.70;;;1.60;;
9968;SDS011;5025;48.890;9.278;2023-09-19T10:57:26;1.93;;;1.27;;
9968;SDS011;5025;48.890;9.278;2023-09-19T11:05:40;1.80;;;1.40;;
9968;SDS011;5025;48.890;9.278;2023-09-19T11:08:09;1.30;;;1.20;;
9968;SDS011;5025;48.890;9.278;2023-09-19T11:10:49;1.63;;;1.40;;
9968;SDS011;5025;48.890;9.278;2023-09-19T11:13:25;1.20;;;1.20;;
9968;SDS011;5025;48.890;9.278;2023-09-19T11:26:49;1.40;;;1.30;;
9968;SDS011;5025;48.890;9.278;2023-09-19T11:29:25;1.97;;;1.23;;
9968;SDS011;5025;48.890;9.278;2023-09-19T11:31:51;1.70;;;1.60;;
9968;SDS011;5025;48.890;9.278;2023-09-19T11:34:37;2.20;;;1.50;;
9968;SDS011;5025;48.890;9.278;2023-09-19T11:37:58;2.60;;;1.60;;
9968;SDS011;5025;48.890;9.278;2023-09-19T11:40:06;2.63;;;1.50;;
9968;SDS011;5025;48.890;9.278;2023-09-19T11:42:48;4.47;;;1.60;;
9968;SDS011;5025;48.890;9.278;2023-09-19T11:48:12;1.30;;;1.20;;
9968;SDS011;5025;48.890;9.278;2023-09-19T11:50:43;1.53;;;1.40;;
9968;SDS011;5025;48.890;9.278;2023-09-19T11:53:13;1.40;;;1.30;;
9968;SDS011;5025;48.890;9.278;2023-09-19T11:55:42;3.40;;;1.50;;
9968;SDS011;5025;48.890;9.278;2023-09-19T11:58:08;2.70;;;1.50;;
9968;SDS011;5025;48.890;9.278;2023-09-19T12:00:35;3.97;;;1.50;;
9968;SDS011;5025;48.890;9.278;2023-09-19T12:03:07;3.67;;;1.87;;
9968;SDS011;5025;48.890;9.278;2023-09-19T12:05:34;2.50;;;1.50;;
9968;SDS011;5025;48.890;9.278;2023-09-19T12:08:02;5.40;;;1.47;;
9968;SDS011;5025;48.890;9.278;2023-09-19T12:10:28;3.50;;;1.70;;
9968;SDS011;5025;48.890;9.278;2023-09-19T12:12:53;1.70;;;1.30;;
9968;SDS011;5025;48.890;9.278;2023-09-19T12:15:24;1.63;;;1.30;;
9968;SDS011;5025;48.890;9.278;2023-09-19T12:17:59;1.30;;;1.20;;
9968;SDS011;5025;48.890;9.278;2023-09-19T12:20:25;1.63;;;1.30;;
9968;SDS011;5025;48.890;9.278;2023-09-19T12:22:50;1.23;;;1.23;;
9968;SDS011;5025;48.890;9.278;2023-09-19T12:25:15;1.30;;;1.30;;
9968;SDS011;5025;48.890;9.278;2023-09-19T12:27:49;1.40;;;1.27;;
9968;SDS011;5025;48.890;9.278;2023-09-19T12:30:18;1.43;;;1.33;;
9968;SDS011;5025;48.890;9.278;2023-09-19T12:32:45;1.77;;;1.40;;
9968;SDS011;5025;48.890;9.278;2023-09-19T12:35:26;2.53;;;1.40;;
9968;SDS011;5025;48.890;9.278;2023-09-19T12:38:02;4.57;;;1.60;;
9968;SDS011;5025;48.890;9.278;2023-09-19T12:40:28;1.90;;;1.40;;
9968;SDS011;5025;48.890;9.278;2023-09-19T12:42:57;1.40;;;1.30;;
9968;SDS011;5025;48.890;9.278;2023-09-19T12:45:23;1.50;;;1.27;;
9968;SDS011;5025;48.890;9.278;2023-09-19T12:50:59;1.30;;;1.23;;
9968;SDS011;5025;48.890;9.278;2023-09-19T12:53:28;2.60;;;1.20;;
9968;SDS011;5025;48.890;9.278;2023-09-19T12:56:00;2.47;;;1.30;;
9968;SDS011;5025;48.890;9.278;2023-09-19T12:58:26;2.77;;;1.40;;
9968;SDS011;5025;48.890;9.278;2023-09-19T13:00:52;1.20;;;1.20;;
9968;SDS011;5025;48.890;9.278;2023-09-19T13:08:25;1.50;;;1.40;;
9968;SDS011;5025;48.890;9.278;2023-09-19T13:11:04;1.40;;;1.30;;
9968;SDS011;5025;48.890;9.278;2023-09-19T13:13:40;1.30;;;1.20;;
9968;SDS011;5025;48.890;9.278;2023-09-19T13:16:52;1.27;;;1.10;;
9968;SDS011;5025;48.890;9.278;2023-09-19T13:19:37;1.43;;;1.33;;
9968;SDS011;5025;48.890;9.278;2023-09-19T13:25:03;1.23;;;1.23;;
9968;SDS011;5025;48.890;9.278;2023-09-19T13:27:33;1.80;;;1.40;;
9968;SDS011;5025;48.890;9.278;2023-09-19T13:29:59;1.10;;;1.10;;
9968;SDS011;5025;48.890;9.278;2023-09-19T13:32:24;2.20;;;1.30;;
9968;SDS011;5025;48.890;9.278;2023-09-19T13:34:51;1.30;;;1.20;;
9968;SDS011;5025;48.890;9.278;2023-09-19T13:37:16;1.40;;;1.30;;
9968;SDS011;5025;48.890;9.278;2023-09-19T13:39:43;1.60;;;1.50;;
9968;SDS011;5025;48.890;9.278;2023-09-19T13:42:12;1.40;;;1.30;;
9968;SDS011;5025;48.890;9.278;2023-09-19T13:44:38;1.30;;;1.20;;
9968;SDS011;5025;48.890;9.278;2023-09-19T13:47:03;1.50;;;1.40;;
9968;SDS011;5025;48.890;9.278;2023-09-19T13:49:34;1.20;;;1.20;;
9968;SDS011;5025;48.890;9.278;2023-09-19T13:52:00;1.50;;;1.40;;
9968;SDS011;5025;48.890;9.278;2023-09-19T13:54:28;1.27;;;1.27;;
9968;SDS011;5025;48.890;9.278;2023-09-19T13:56:53;1.50;;;1.40;;
9968;SDS011;5025;48.890;9.278;2023-09-19T13:59:18;1.50;;;1.40;;
9968;SDS011;5025;48.890;9.278;2023-09-19T14:01:45;1.70;;;1.27;;
9968;SDS011;5025;48.890;9.278;2023-09-19T14:04:11;1.40;;;1.30;;
9968;SDS011;5025;48.890;9.278;2023-09-19T14:06:36;2.57;;;1.40;;
9968;SDS011;5025;48.890;9.278;2023-09-19T14:09:02;1.20;;;1.10;;
9968;SDS011;5025;48.890;9.278;2023-09-19T14:11:28;1.50;;;1.40;;
9968;SDS011;5025;48.890;9.278;2023-09-19T14:13:54;1.20;;;1.20;;
9968;SDS011;5025;48.890;9.278;2023-09-19T14:16:19;1.50;;;1.40;;
9968;SDS011;5025;48.890;9.278;2023-09-19T14:18:47;2.27;;;1.30;;
9968;SDS011;5025;48.890;9.278;2023-09-19T14:21:12;1.47;;;1.40;;
9968;SDS011;5025;48.890;9.278;2023-09-19T14:23:38;1.67;;;1.33;;
9968;SDS011;5025;48.890;9.278;2023-09-19T14:26:04;1.10;;;1.10;;
9968;SDS011;5025;48.890;9.278;2023-09-19T14:28:33;1.50;;;1.40;;
9968;SDS011;5025;48.890;9.278;2023-09-19T14:31:07;1.50;;;1.40;;
9968;SDS011;5025;48.890;9.278;2023-09-19T14:33:34;1.40;;;1.30;;
9968;SDS011;5025;48.890;9.278;2023-09-19T14:36:03;1.40;;;1.30;;
9968;SDS011;5025;48.890;9.278;2023-09-19T14:38:31;1.50;;;1.40;;
9968;SDS011;5025;48.890;9.278;2023-09-19T14:40:59;1.20;;;1.20;;
9968;SDS011;5025;48.890;9.278;2023-09-19T14:43:28;1.70;;;1.20;;
9968;SDS011;5025;48.890;9.278;2023-09-19T14:45:55;1.50;;;1.40;;
9968;SDS011;5025;48.890;9.278;2023-09-19T14:48:22;1.60;;;1.50;;
9968;SDS011;5025;48.890;9.278;2023-09-19T14:50:51;1.50;;;1.50;;
9968;SDS011;5025;48.890;9.278;2023-09-19T14:53:17;1.60;;;1.20;;
9968;SDS011;5025;48.890;9.278;2023-09-19T14:55:42;1.20;;;1.20;;
9968;SDS011;5025;48.890;9.278;2023-09-19T14:58:09;1.30;;;1.20;;
9968;SDS011;5025;48.890;9.278;2023-09-19T15:00:35;1.80;;;1.40;;
9968;SDS011;5025;48.890;9.278;2023-09-19T15:03:00;1.20;;;1.20;;
9968;SDS011;5025;48.890;9.278;2023-09-19T15:05:26;1.40;;;1.30;;
9968;SDS011;5025;48.890;9.278;2023-09-19T15:07:54;1.30;;;1.30;;
9968;SDS011;5025;48.890;9.278;2023-09-19T15:10:20;1.43;;;1.37;;
9968;SDS011;5025;48.890;9.278;2023-09-19T15:12:47;1.33;;;1.23;;
9968;SDS011;5025;48.890;9.278;2023-09-19T15:15:13;1.27;;;1.27;;
9968;SDS011;5025;48.890;9.278;2023-09-19T15:17:38;1.10;;;1.10;;
9968;SDS011;5025;48.890;9.278;2023-09-19T15:20:03;1.30;;;1.30;;
9968;SDS011;5025;48.890;9.278;2023-09-19T15:22:31;1.40;;;1.30;;
9968;SDS011;5025;48.890;9.278;2023-09-19T15:24:57;1.10;;;1.10;;
9968;SDS011;5025;48.890;9.278;2023-09-19T15:27:22;1.40;;;1.30;;
9968;SDS011;5025;48.890;9.278;2023-09-19T15:29:47;1.43;;;1.33;;
9968;SDS011;5025;48.890;9.278;2023-09-19T15:32:13;1.43;;;1.30;;
9968;SDS011;5025;48.890;9.278;2023-09-19T15:34:38;1.10;;;1.10;;
9968;SDS011;5025;48.890;9.278;2023-09-19T15:37:03;1.30;;;1.30;;
9968;SDS011;5025;48.890;9.278;2023-09-19T15:39:32;1.47;;;1.40;;
9968;SDS011;5025;48.890;9.278;2023-09-19T15:42:01;1.83;;;1.50;;
9968;SDS011;5025;48.890;9.278;2023-09-19T15:44:27;1.50;;;1.40;;
9968;SDS011;5025;48.890;9.278;2023-09-19T15:46:53;1.97;;;1.40;;
9968;SDS011;5025;48.890;9.278;2023-09-19T15:49:18;1.47;;;1.33;;
9968;SDS011;5025;48.890;9.278;2023-09-19T15:51:43;1.37;;;1.27;;
9968;SDS011;5025;48.890;9.278;2023-09-19T15:54:13;1.30;;;1.20;;
9968;SDS011;5025;48.890;9.278;2023-09-19T15:56:39;1.30;;;1.20;;
9968;SDS011;5025;48.890;9.278;2023-09-19T15:59:09;1.13;;;1.13;;
9968;SDS011;5025;48.890;9.278;2023-09-19T16:01:37;1.10;;;1.10;;
9968;SDS011;5025;48.890;9.278;2023-09-19T16:04:03;1.33;;;1.30;;
9968;SDS011;5025;48.890;9.278;2023-09-19T16:06:29;1.17;;;1.07;;
9968;SDS011;5025;48.890;9.278;2023-09-19T16:08:56;1.30;;;1.20;;
9968;SDS011;5025;48.890;9.278;2023-09-19T16:11:23;1.50;;;1.13;;
9968;SDS011;5025;48.890;9.278;2023-09-19T16:13:50;1.13;;;1.13;;